Time;durP1;ratioP1;P1;durP2;ratioP2;P2;SDS_P1;SDS_P2;PMS_P1;PMS_P2;Temp;Humidity;BMP_temperature;BMP_pressure;BME280_temperature;BME280_humidity;BME280_pressure;Samples;Min_cycle;Max_cycle;Signal;HPM_P1;HPM_P2
2022/03/09 00:01:29;;;;;;;14.80;8.60;;;3.80;73.10;;;1.82;64.13;101187.16;4989474;28;20417;-80
2022/03/09 00:03:56;;;;;;;13.75;8.38;;;3.80;72.80;;;1.68;64.74;101188.16;4989883;28;20466;-79
2022/03/09 00:06:23;;;;;;;17.38;8.95;;;3.80;72.80;;;1.61;64.85;101188.72;4989913;28;20050;-79
2022/03/09 00:08:52;;;;;;;18.48;8.65;;;3.80;72.90;;;1.49;65.47;101201.19;4989800;28;20053;-79
2022/03/09 00:11:19;;;;;;;17.45;9.60;;;3.70;73.10;;;1.23;67.02;101203.88;4989612;28;20126;-79
2022/03/09 00:13:47;;;;;;;17.88;9.35;;;3.60;73.40;;;1.05;67.36;101205.13;4989975;28;20042;-79
2022/03/09 00:16:15;;;;;;;15.80;8.82;;;3.60;73.50;;;0.96;68.10;101199.47;4990083;28;20050;-79
2022/03/09 00:18:42;;;;;;;16.63;8.82;;;3.50;74.00;;;0.93;68.47;101212.22;4989756;28;20045;-79
2022/03/09 00:21:10;;;;;;;15.02;8.45;;;3.50;74.20;;;0.95;68.20;101200.44;4989724;28;20050;-79
2022/03/09 00:23:37;;;;;;;19.33;9.23;;;3.50;74.20;;;0.93;68.05;101209.53;4989242;28;20065;-79
2022/03/09 00:26:07;;;;;;;16.63;9.00;;;3.40;74.20;;;0.95;68.19;101210.28;4989370;28;20046;-79
2022/03/09 00:28:34;;;;;;;15.15;8.82;;;3.40;74.40;;;1.05;67.76;101216.75;4990140;28;20046;-79
2022/03/09 00:31:01;;;;;;;15.50;8.50;;;3.40;74.30;;;1.01;66.89;101217.94;4993588;28;20070;-79
2022/03/09 00:33:28;;;;;;;15.75;8.52;;;3.40;73.90;;;1.05;66.96;101213.19;4993321;28;20117;-79
2022/03/09 00:35:56;;;;;;;18.33;8.90;;;3.40;74.20;;;1.07;67.31;101211.28;4994090;28;20074;-79
2022/03/09 00:38:23;;;;;;;18.83;9.10;;;3.40;74.30;;;1.08;67.55;101216.50;4993930;28;20153;-79
2022/03/09 00:40:50;;;;;;;12.35;7.47;;;3.30;74.80;;;1.08;67.34;101218.34;4993306;28;20049;-79
2022/03/09 00:43:19;;;;;;;13.23;7.90;;;3.30;74.80;;;1.17;66.94;101223.06;4993514;28;20042;-79
2022/03/09 00:45:46;;;;;;;15.75;7.78;;;3.30;74.70;;;1.15;66.84;101217.81;4993631;28;20049;-79
2022/03/09 00:48:13;;;;;;;13.10;7.07;;;3.50;74.90;;;1.14;66.98;101210.75;4993253;28;20042;-79
2022/03/09 00:50:41;;;;;;;14.32;7.07;;;3.30;74.70;;;1.19;67.51;101217.63;4992992;28;20121;-79
2022/03/09 00:53:08;;;;;;;14.73;7.60;;;3.30;74.90;;;1.32;67.07;101210.44;4993440;28;20117;-79
2022/03/09 00:55:35;;;;;;;14.30;7.50;;;3.30;75.30;;;1.40;67.13;101210.75;4993270;28;20469;-79
2022/03/09 00:58:02;;;;;;;14.50;6.18;;;3.40;75.20;;;1.47;65.51;101205.81;4993535;28;20496;-79
2022/03/09 01:00:31;;;;;;;14.90;6.75;;;3.40;74.80;;;1.44;65.02;101206.88;4993124;28;20077;-79
2022/03/09 01:02:58;;;;;;;13.98;6.00;;;3.40;73.90;;;1.50;65.40;101200.22;4992829;28;20074;-80
2022/03/09 01:05:26;;;;;;;11.77;6.15;;;3.40;74.00;;;1.59;65.26;101198.72;4993010;28;20061;-80
2022/03/09 01:07:53;;;;;;;11.68;6.63;;;3.40;74.10;;;1.64;65.77;101196.53;4992834;28;20046;-80
2022/03/09 01:10:20;;;;;;;11.48;6.13;;;3.50;74.50;;;1.77;64.96;101192.00;4993094;28;20097;-80
2022/03/09 01:12:48;;;;;;;9.75;5.03;;;3.50;73.90;;;1.89;64.88;101201.00;4992838;28;20046;-80
2022/03/09 01:15:15;;;;;;;9.70;5.68;;;3.60;73.70;;;1.98;63.25;101194.97;4993264;28;20050;-80
2022/03/09 01:17:43;;;;;;;9.13;5.72;;;3.80;72.90;;;2.10;63.62;101193.22;4992249;28;20057;-80
2022/03/09 01:20:12;;;;;;;12.73;5.80;;;3.80;72.20;;;2.10;63.74;101190.53;4992826;28;20459;-80
2022/03/09 01:22:40;;;;;;;10.27;5.90;;;3.80;72.30;;;2.19;62.90;101194.34;4992014;28;20054;-80
2022/03/09 01:25:09;;;;;;;10.60;5.63;;;3.80;72.50;;;2.29;62.86;101193.56;4992944;28;20122;-80
2022/03/09 01:27:36;;;;;;;10.75;6.00;;;3.90;71.40;;;2.40;61.59;101199.94;4992520;28;20412;-80
2022/03/09 01:30:04;;;;;;;10.90;5.72;;;4.00;70.50;;;2.49;61.57;101189.34;4992556;28;20069;-80
2022/03/09 01:32:32;;;;;;;8.52;5.13;;;4.10;70.50;;;2.55;60.54;101188.03;4992754;28;20046;-80
2022/03/09 01:35:00;;;;;;;11.23;5.80;;;4.10;69.90;;;2.63;60.23;101185.66;4992761;28;20089;-80
2022/03/09 01:37:28;;;;;;;10.15;5.57;;;4.20;70.00;;;2.69;61.16;101184.31;4992648;28;20141;-79
2022/03/09 01:39:55;;;;;;;10.15;5.65;;;4.30;69.70;;;2.73;60.54;101178.59;4991920;28;20085;-80
2022/03/09 01:42:23;;;;;;;10.40;5.70;;;4.40;69.20;;;2.81;59.79;101171.78;4991832;28;20045;-80
2022/03/09 01:44:50;;;;;;;11.90;5.68;;;4.40;68.50;;;2.84;59.92;101171.56;4991274;28;20504;-80
2022/03/09 01:47:17;;;;;;;11.35;6.22;;;4.40;67.80;;;2.89;58.13;101175.59;4992462;28;20077;-80
2022/03/09 01:49:44;;;;;;;9.55;5.57;;;4.50;68.30;;;2.93;60.33;101176.19;4991605;28;20494;-80
2022/03/09 01:52:13;;;;;;;11.48;5.55;;;4.50;68.30;;;2.97;59.99;101171.44;4992215;28;20161;-80
2022/03/09 01:54:41;;;;;;;10.18;5.40;;;4.60;67.80;;;3.00;58.10;101172.06;4992418;28;20077;-80
2022/03/09 01:57:08;;;;;;;12.57;5.60;;;4.60;67.70;;;3.01;57.73;101168.41;4992258;28;20492;-80
2022/03/09 01:59:36;;;;;;;11.85;5.90;;;4.60;67.50;;;3.03;59.66;101166.44;4992094;28;20088;-80
2022/03/09 02:02:05;;;;;;;11.68;5.47;;;4.70;67.30;;;3.07;57.41;101167.91;4991808;28;20121;-80
2022/03/09 02:04:32;;;;;;;10.75;5.85;;;4.70;67.20;;;3.09;58.07;101168.66;4992136;28;20049;-80
2022/03/09 02:06:59;;;;;;;12.82;5.63;;;4.70;67.00;;;3.11;58.99;101163.16;4992264;28;20061;-80
2022/03/09 02:09:42;;;;;;;10.88;5.82;;;4.70;67.50;;;3.12;58.40;101172.91;4991491;28;20042;-80
2022/03/09 02:12:11;;;;;;;10.05;5.40;;;4.80;67.40;;;3.17;57.51;101167.19;4991647;28;20046;-80
2022/03/09 02:14:41;;;;;;;12.07;6.10;;;4.70;65.90;;;3.20;57.75;101166.94;4990554;28;20050;-80
2022/03/09 02:17:11;;;;;;;10.90;5.50;;;4.80;67.10;;;3.20;58.42;101175.00;4992309;28;20073;-80
2022/03/09 02:19:40;;;;;;;10.57;5.88;;;4.80;66.40;;;3.22;57.41;101171.25;4991473;28;20038;-80
2022/03/09 02:22:16;;;;;;;11.50;5.82;;;4.80;66.50;;;3.23;57.15;101177.47;4991522;28;20049;-79
2022/03/09 02:24:45;;;;;;;12.48;5.85;;;4.80;66.20;;;3.24;58.34;101179.19;4991767;28;20077;-80
2022/03/09 02:27:12;;;;;;;10.35;5.80;;;4.80;66.50;;;3.19;56.75;101178.69;4991793;28;20052;-80
2022/03/09 02:29:40;;;;;;;11.57;6.47;;;4.80;66.70;;;3.20;57.01;101183.06;4991330;28;20050;-80
2022/03/09 02:32:08;;;;;;;11.90;5.72;;;4.80;66.30;;;3.22;57.39;101182.00;4991363;28;20125;-80
2022/03/09 02:34:36;;;;;;;10.98;5.90;;;4.80;66.30;;;3.28;55.68;101180.66;4991425;28;20045;-80
2022/03/09 02:37:03;;;;;;;9.70;5.55;;;4.80;65.80;;;3.29;56.23;101176.97;4991660;28;20117;-80
2022/03/09 02:39:31;;;;;;;13.05;5.95;;;4.90;65.70;;;3.29;54.96;101176.97;4991547;28;20109;-80
2022/03/09 02:41:59;;;;;;;11.27;5.57;;;4.90;65.50;;;3.31;56.85;101175.03;4990303;28;20065;-80
2022/03/09 02:44:26;;;;;;;9.80;5.68;;;4.90;65.80;;;3.31;56.12;101173.22;4991218;28;20051;-80
2022/03/09 02:46:54;;;;;;;13.43;5.53;;;4.90;66.10;;;3.32;56.84;101172.22;4991189;28;20519;-80
2022/03/09 02:49:21;;;;;;;9.85;5.85;;;4.90;65.70;;;3.35;57.05;101173.81;4971911;28;20042;-80
2022/03/09 02:51:49;;;;;;;9.90;5.90;;;4.90;66.00;;;3.36;57.40;101175.53;4980802;28;20049;-80
2022/03/09 02:54:16;;;;;;;11.13;5.97;;;4.90;66.10;;;3.36;57.34;101170.16;4990418;28;20137;-80
2022/03/09 02:56:44;;;;;;;9.18;5.35;;;4.90;65.90;;;3.36;57.05;101175.53;4972010;28;20505;-80
2022/03/09 02:59:13;;;;;;;13.63;5.72;;;4.90;66.00;;;3.35;56.34;101171.13;4982432;28;20054;-79
2022/03/09 03:01:41;;;;;;;11.07;5.85;;;4.90;66.00;;;3.35;56.00;101168.44;4990820;28;20054;-80
2022/03/09 03:04:08;;;;;;;12.10;6.38;;;4.90;66.20;;;3.36;55.21;101174.69;4990927;28;20149;-80
2022/03/09 03:06:35;;;;;;;10.48;5.88;;;4.90;65.80;;;3.36;57.02;101167.44;4990903;28;20074;-80
2022/03/09 03:09:03;;;;;;;13.45;6.18;;;4.90;66.00;;;3.38;56.20;101168.19;4990938;28;20053;-80
2022/03/09 03:11:30;;;;;;;10.65;5.85;;;4.90;65.60;;;3.39;56.14;101169.91;4973305;28;20081;-80
2022/03/09 03:13:57;;;;;;;11.10;6.00;;;4.90;65.60;;;3.40;56.41;101162.69;4989515;28;20432;-80
2022/03/09 03:16:26;;;;;;;13.45;6.25;;;5.00;65.60;;;3.38;55.50;101160.13;4990319;28;20093;-80
2022/03/09 03:18:53;;;;;;;11.18;5.70;;;5.00;65.20;;;3.38;56.26;101165.50;4990587;28;20447;-79
2022/03/09 03:21:20;;;;;;;11.20;5.53;;;5.00;65.80;;;3.40;56.40;101162.69;4990190;28;20054;-80
2022/03/09 03:23:47;;;;;;;11.75;5.97;;;4.90;65.90;;;3.40;56.94;101158.16;4990586;28;20045;-80
2022/03/09 03:26:15;;;;;;;12.60;5.70;;;4.90;65.40;;;3.42;56.29;101158.03;4990833;28;20518;-79
2022/03/09 03:28:42;;;;;;;10.30;5.53;;;4.90;65.80;;;3.41;56.02;101159.00;4973306;28;20053;-80
2022/03/09 03:31:09;;;;;;;11.20;5.45;;;5.00;65.30;;;3.40;56.25;101158.16;4990316;28;20043;-80
2022/03/09 03:33:38;;;;;;;11.32;5.88;;;4.90;65.60;;;3.40;55.94;101160.84;4990166;28;20048;-80
2022/03/09 03:36:06;;;;;;;11.48;5.50;;;4.90;65.80;;;3.41;56.30;101157.19;4990784;28;20140;-80
2022/03/09 03:38:33;;;;;;;10.50;6.05;;;4.90;65.20;;;3.38;56.03;101154.72;4990655;28;20399;-80
2022/03/09 03:41:00;;;;;;;10.57;5.78;;;4.90;65.40;;;3.37;55.50;101158.41;4990204;28;20074;-79
2022/03/09 03:43:27;;;;;;;10.80;5.75;;;4.90;65.50;;;3.36;55.49;101154.00;4989908;28;20121;-80
2022/03/09 03:45:55;;;;;;;11.13;5.65;;;4.90;65.40;;;3.35;56.01;101143.34;4990271;28;20038;-80
2022/03/09 03:48:22;;;;;;;10.43;6.18;;;4.90;65.50;;;3.36;55.43;101143.25;4990216;28;20050;-79
2022/03/09 03:50:51;;;;;;;11.32;6.00;;;4.90;65.30;;;3.36;55.32;101139.69;4990064;28;20074;-80
2022/03/09 03:53:18;;;;;;;10.95;5.70;;;4.90;64.10;;;3.37;55.34;101142.28;4990358;28;20408;-80
2022/03/09 03:55:45;;;;;;;11.45;5.93;;;4.90;64.50;;;3.37;54.94;101144.97;4990058;28;20121;-80
2022/03/09 03:58:12;;;;;;;11.75;6.00;;;4.90;64.90;;;3.36;54.22;101147.78;4989776;28;20151;-80
2022/03/09 04:00:40;;;;;;;11.38;5.75;;;4.90;64.60;;;3.37;54.67;101146.78;4989458;28;20045;-80
2022/03/09 04:03:08;;;;;;;10.45;5.90;;;4.90;65.00;;;3.35;55.35;101146.94;4989851;28;20092;-80
2022/03/09 04:05:35;;;;;;;10.65;6.20;;;4.90;65.00;;;3.34;55.87;101142.50;4996213;28;20154;-80
2022/03/09 04:08:04;;;;;;;11.10;5.60;;;4.90;64.80;;;3.36;54.88;101145.94;4996744;28;20096;-80
2022/03/09 04:10:31;;;;;;;11.63;5.95;;;4.90;64.60;;;3.37;55.48;101144.97;4996038;28;20050;-80
2022/03/09 04:13:00;;;;;;;15.30;5.53;;;4.90;64.90;;;3.38;54.21;101143.97;4996294;28;20042;-80
2022/03/09 04:15:29;;;;;;;11.10;5.80;;;4.90;64.90;;;3.40;55.57;101146.53;4996393;28;20520;-80
2022/03/09 04:17:56;;;;;;;12.45;5.78;;;4.90;65.20;;;3.40;56.02;101147.41;4996509;28;20133;-79
2022/03/09 04:20:24;;;;;;;11.25;6.00;;;4.90;64.90;;;3.41;55.66;101149.13;4996036;28;20051;-80
2022/03/09 04:22:51;;;;;;;10.50;5.70;;;4.90;64.90;;;3.40;55.86;101152.78;4996368;28;20141;-79
2022/03/09 04:25:19;;;;;;;12.50;6.13;;;4.90;65.10;;;3.40;55.36;101155.47;4996304;28;20122;-80
2022/03/09 04:27:47;;;;;;;11.50;6.20;;;4.90;65.10;;;3.39;55.22;101161.84;4996208;28;20121;-80
2022/03/09 04:30:14;;;;;;;14.27;5.90;;;4.90;65.10;;;3.37;54.64;101153.03;4996072;28;20504;-80
2022/03/09 04:32:41;;;;;;;9.65;5.70;;;4.90;64.70;;;3.32;55.41;101160.59;4996173;28;20543;-80
2022/03/09 04:35:10;;;;;;;14.88;6.15;;;4.90;64.50;;;3.30;53.88;101154.50;4996349;28;20031;-80
2022/03/09 04:37:37;;;;;;;12.27;6.43;;;4.90;64.90;;;3.29;54.76;101160.84;4996150;28;20141;-80
2022/03/09 04:40:08;;;;;;;11.63;6.25;;;4.80;65.00;;;3.30;54.79;101167.94;4992069;28;20042;-80
2022/03/09 04:42:36;;;;;;;9.63;5.65;;;4.80;64.80;;;3.31;55.28;101161.56;5028271;22;20067;-88
2022/03/09 04:45:05;;;;;;;13.05;5.55;;;4.80;65.30;;;3.27;54.76;101165.50;5035301;28;20036;-88
2022/03/09 04:47:32;;;;;;;11.38;5.95;;;4.80;65.00;;;3.26;54.75;101166.47;5035285;28;20131;-87
2022/03/09 04:49:59;;;;;;;13.05;6.10;;;4.80;65.20;;;3.27;55.45;101162.78;5034642;28;20119;-88
2022/03/09 04:52:27;;;;;;;11.73;6.05;;;4.80;64.80;;;3.25;55.84;101154.00;5014416;28;20504;-88
2022/03/09 04:54:54;;;;;;;10.55;6.03;;;4.80;65.10;;;3.28;54.27;101167.22;5015078;28;20045;-88
2022/03/09 04:57:21;;;;;;;12.10;6.10;;;4.80;64.60;;;3.27;54.64;101160.09;5015320;28;20080;-88
2022/03/09 04:59:50;;;;;;;12.93;6.00;;;4.80;64.70;;;3.28;55.72;101165.38;5015122;28;20053;-88
2022/03/09 05:02:18;;;;;;;10.70;6.55;;;4.80;65.00;;;3.25;54.42;101167.44;5015285;28;20500;-87
2022/03/09 05:04:46;;;;;;;14.40;6.80;;;4.80;64.30;;;3.25;54.53;101167.44;5014887;28;20038;-88
2022/03/09 05:07:13;;;;;;;13.82;5.93;;;4.90;64.60;;;3.27;55.10;101165.50;5015363;28;20077;-87
2022/03/09 05:09:40;;;;;;;11.70;6.57;;;4.90;65.00;;;3.27;54.18;101170.88;5015101;28;20042;-88
2022/03/09 05:12:09;;;;;;;10.93;6.20;;;4.80;64.70;;;3.21;54.05;101163.28;5015001;28;20133;-88
2022/03/09 05:14:36;;;;;;;10.55;6.30;;;4.80;64.60;;;3.23;55.03;101167.56;5015676;28;20586;-88
2022/03/09 05:23:01;;;;;;;10.20;6.18;;;4.80;65.20;;;3.23;54.66;101167.56;3060761;22;20057;-86
2022/03/09 05:25:29;;;;;;;11.57;6.32;;;4.70;65.10;;;3.23;54.46;101166.72;5031782;28;20400;-83
2022/03/09 05:27:56;;;;;;;11.85;6.45;;;4.80;65.20;;;3.27;55.28;101165.50;5031533;28;20789;-82
2022/03/09 05:30:24;;;;;;;11.35;6.40;;;4.80;64.60;;;3.27;55.14;101163.66;5030968;28;20041;-82
2022/03/09 05:32:51;;;;;;;14.85;6.10;;;4.80;64.60;;;3.28;54.88;101159.16;5031612;28;20707;-85
2022/03/09 05:35:18;;;;;;;9.90;6.22;;;4.80;64.00;;;3.30;54.84;101170.63;5012306;28;20496;-85
2022/03/09 05:37:46;;;;;;;10.80;5.90;;;4.80;64.30;;;3.30;54.12;101165.25;5011892;28;20052;-85
2022/03/09 05:40:15;;;;;;;14.30;5.68;;;4.80;64.20;;;3.26;53.69;101166.47;5011403;28;20080;-86
2022/03/09 05:42:44;;;;;;;14.20;6.70;;;4.80;64.40;;;3.27;54.79;101173.56;4992238;28;20121;-85
2022/03/09 05:45:12;;;;;;;15.13;6.35;;;4.80;64.50;;;3.25;54.47;101168.28;5013087;28;20107;-84
2022/03/09 05:47:39;;;;;;;10.75;6.57;;;4.80;64.60;;;3.25;53.96;101173.66;5030735;28;20048;-85
2022/03/09 05:50:09;;;;;;;12.77;6.13;;;4.80;64.10;;;3.23;54.21;101167.56;5011349;28;20049;-85
2022/03/09 05:52:37;;;;;;;11.45;6.03;;;4.80;63.70;;;3.28;53.80;101175.28;5022483;28;20682;-82
2022/03/09 05:55:06;;;;;;;12.32;6.35;;;4.80;64.00;;;3.30;52.80;101184.09;5012201;28;20056;-83
2022/03/09 05:57:34;;;;;;;13.13;6.45;;;4.80;63.40;;;3.33;53.81;101189.22;5011669;28;20049;-83
2022/03/09 06:00:03;;;;;;;11.70;6.72;;;4.90;63.60;;;3.35;53.85;101192.66;5022778;28;20054;-85
2022/03/09 06:02:38;;;;;;;16.10;7.18;;;4.90;63.90;;;3.36;54.22;101183.59;5022323;28;20053;-83
2022/03/09 06:05:07;;;;;;;11.80;6.10;;;4.90;63.70;;;3.37;54.55;101184.44;5011256;28;20456;-84
2022/03/09 06:07:34;;;;;;;10.88;6.22;;;4.90;64.20;;;3.39;54.11;101175.28;5029963;28;20117;-81
2022/03/09 06:10:02;;;;;;;13.75;6.72;;;4.90;63.70;;;3.41;53.55;101183.22;5021604;28;20124;-83
2022/03/09 06:12:29;;;;;;;11.68;6.45;;;4.90;63.60;;;3.38;54.05;101176.25;5011414;28;20393;-82
2022/03/09 06:14:58;;;;;;;10.40;5.93;;;4.90;63.60;;;3.41;53.37;101181.41;5021669;28;20045;-83
2022/03/09 06:17:25;;;;;;;14.13;6.85;;;4.90;63.50;;;3.44;53.42;101186.53;5020268;28;20117;-83
2022/03/09 06:19:53;;;;;;;12.15;6.82;;;5.00;63.60;;;3.45;54.04;101188.25;5030610;28;20049;-83
2022/03/09 06:22:20;;;;;;;15.07;6.50;;;5.00;63.60;;;3.48;52.60;101193.41;5027126;28;20041;-81
2022/03/09 06:24:47;;;;;;;12.95;6.50;;;5.00;63.00;;;3.52;52.99;101210.13;5005692;28;20072;-82
2022/03/09 06:27:16;;;;;;;14.80;6.18;;;5.00;63.20;;;3.53;52.06;101196.56;5009401;28;20500;-84
2022/03/09 06:29:43;;;;;;;12.90;6.38;;;5.00;63.20;;;3.56;53.19;101203.56;5008885;28;20435;-84
2022/03/09 06:32:11;;;;;;;11.90;6.10;;;5.10;62.90;;;3.56;52.39;101195.47;5018154;28;20049;-85
2022/03/09 06:34:39;;;;;;;12.35;6.25;;;5.10;62.80;;;3.56;51.70;101202.69;5028336;28;20773;-84
2022/03/09 06:37:06;;;;;;;9.68;5.70;;;5.10;62.70;;;3.60;53.51;101204.13;5009169;28;20070;-84
2022/03/09 06:39:36;;;;;;;11.32;6.03;;;5.10;63.20;;;3.61;52.46;101195.09;5015572;28;20042;-86
2022/03/09 06:42:04;;;;;;;11.85;6.20;;;5.10;63.40;;;3.63;51.47;101201.22;5009465;28;20048;-86
2022/03/09 06:44:31;;;;;;;12.77;6.82;;;5.20;62.60;;;3.67;53.00;101199.97;5028063;28;20067;-87
2022/03/09 06:46:58;;;;;;;12.07;6.72;;;5.20;62.70;;;3.73;53.11;101207.56;5007009;28;20099;-87
2022/03/09 06:49:28;;;;;;;13.60;6.80;;;5.20;62.80;;;3.77;52.69;101208.16;5008237;28;20639;-87
2022/03/09 06:51:55;;;;;;;9.38;5.55;;;5.30;63.30;;;3.79;52.74;101207.09;5005049;28;20113;-87
2022/03/09 06:54:23;;;;;;;12.07;6.88;;;5.30;63.30;;;3.83;52.64;101203.16;5011869;28;20041;-87
2022/03/09 06:57:22;;;;;;;9.75;5.88;;;5.30;63.10;;;3.86;52.77;101205.59;5011739;28;20508;-88
2022/03/09 06:59:53;;;;;;;13.05;6.47;;;5.30;63.20;;;3.90;52.17;101211.59;5025232;28;20515;-87
2022/03/09 07:02:20;;;;;;;13.68;6.47;;;5.40;62.80;;;3.97;52.55;101220.03;5010991;28;20042;-86
2022/03/09 07:04:48;;;;;;;13.25;6.40;;;5.50;62.80;;;4.01;53.09;101222.34;5008836;28;20057;-87
2022/03/09 07:07:16;;;;;;;15.93;6.22;;;5.50;62.40;;;4.02;51.74;101228.63;5008129;28;20112;-88
2022/03/09 07:09:43;;;;;;;12.32;6.32;;;5.50;62.30;;;4.04;51.59;101226.66;5009151;28;20057;-88
2022/03/09 07:12:11;;;;;;;13.20;6.80;;;5.60;62.30;;;4.09;52.88;101225.28;5009881;28;20045;-88
2022/03/09 07:14:38;;;;;;;15.40;6.72;;;5.60;62.10;;;4.15;51.87;101226.63;5008370;28;20125;-86
2022/03/09 07:17:05;;;;;;;13.43;6.72;;;5.60;62.60;;;4.22;52.50;101229.66;5009278;28;20124;-88
2022/03/09 07:19:33;;;;;;;12.88;6.57;;;5.70;62.10;;;4.31;50.80;101237.00;5009052;28;20567;-86
2022/03/09 07:22:02;;;;;;;10.07;6.18;;;5.70;61.90;;;4.40;50.29;101238.94;5007829;28;20059;-86
2022/03/09 07:24:29;;;;;;;11.90;6.63;;;5.80;61.70;;;4.48;51.39;101235.59;5008370;28;20104;-85
2022/03/09 07:26:56;;;;;;;13.27;6.18;;;5.80;61.40;;;4.55;51.69;101238.63;5005544;28;20044;-86
2022/03/09 07:29:23;;;;;;;13.65;6.45;;;5.90;61.00;;;4.58;50.97;101233.84;5010121;28;20476;-86
2022/03/09 07:31:53;;;;;;;12.52;7.10;;;6.00;60.20;;;4.64;51.36;101230.63;5009431;28;20393;-85
2022/03/09 07:34:22;;;;;;;14.13;6.75;;;6.00;60.60;;;4.75;51.28;101236.97;5016597;28;20041;-86
2022/03/09 07:36:50;;;;;;;11.13;6.50;;;6.10;59.70;;;4.83;51.04;101239.88;4993784;28;20056;-86
2022/03/09 07:39:19;;;;;;;14.18;7.45;;;6.20;60.00;;;4.88;50.94;101240.34;4993764;28;20516;-86
2022/03/09 07:41:47;;;;;;;13.38;7.50;;;6.20;60.30;;;4.95;50.39;101238.84;5009324;28;20531;-85
2022/03/09 07:44:18;;;;;;;12.50;6.35;;;6.30;60.00;;;5.03;49.78;101240.91;5016096;28;20438;-87
2022/03/09 07:46:46;;;;;;;11.25;6.40;;;6.30;59.40;;;5.07;50.53;101237.78;4994447;28;20050;-85
2022/03/09 07:49:13;;;;;;;12.88;6.28;;;6.40;59.40;;;5.16;50.11;101252.34;5014473;28;20120;-84
2022/03/09 07:51:40;;;;;;;12.10;6.90;;;6.50;59.70;;;5.24;49.68;101238.19;5009124;28;20180;-85
2022/03/09 07:54:07;;;;;;;12.77;6.78;;;6.50;58.70;;;5.37;49.15;101244.25;5009974;28;20112;-86
2022/03/09 07:56:36;;;;;;;11.35;7.22;;;6.60;58.50;;;5.51;48.94;101239.50;5008030;28;20065;-85
2022/03/09 07:59:04;;;;;;;10.95;6.35;;;6.70;58.40;;;5.62;49.48;101242.13;5012115;28;20789;-85
2022/03/09 08:01:31;;;;;;;11.52;6.43;;;6.70;58.70;;;5.72;48.52;101243.00;5028849;28;20037;-85
2022/03/09 08:03:59;;;;;;;11.52;6.50;;;6.80;58.20;;;5.82;48.98;101238.50;5026988;28;20128;-86
2022/03/09 08:06:27;;;;;;;12.73;6.60;;;6.90;58.10;;;5.89;48.51;101244.22;5010110;28;20088;-86
2022/03/09 08:08:54;;;;;;;12.07;6.50;;;6.90;58.10;;;5.97;47.97;101251.69;5009267;28;20496;-86
2022/03/09 08:11:22;;;;;;;13.20;6.53;;;7.00;57.50;;;6.07;46.99;101252.56;5029145;28;20107;-86
2022/03/09 08:13:51;;;;;;;14.13;7.38;;;7.10;57.10;;;6.11;47.12;101254.00;5029105;28;20411;-89
2022/03/09 08:16:18;;;;;;;12.55;6.50;;;7.10;57.10;;;6.17;46.24;101249.88;5018678;28;20132;-88
2022/03/09 08:18:46;;;;;;;10.98;6.70;;;7.20;56.40;;;6.21;47.30;101257.59;5007003;28;20104;-88
2022/03/09 08:21:14;;;;;;;11.77;6.60;;;7.30;56.70;;;6.23;47.33;101255.59;5008490;28;20050;-87
2022/03/09 08:23:41;;;;;;;11.07;6.50;;;7.40;56.80;;;6.27;47.27;101258.88;5008572;28;20087;-87
2022/03/09 08:26:08;;;;;;;13.60;7.30;;;7.50;56.50;;;6.31;47.36;101262.16;4989647;28;20537;-88
2022/03/09 08:28:36;;;;;;;11.60;6.88;;;7.50;56.20;;;6.34;47.40;101260.06;5008862;28;20065;-88
2022/03/09 08:31:05;;;;;;;12.43;6.57;;;7.60;55.40;;;6.41;47.02;101263.03;5007624;28;20053;-88
2022/03/09 08:33:32;;;;;;;15.55;7.28;;;7.70;55.50;;;6.53;46.69;101264.66;5008543;28;20124;-88
2022/03/09 08:36:01;;;;;;;18.70;7.85;;;7.80;55.30;;;6.53;47.07;101259.22;5007960;28;20069;-88
2022/03/09 08:38:28;;;;;;;13.13;6.72;;;7.80;56.00;;;6.63;47.23;101254.69;5026885;28;20137;-88
2022/03/09 08:40:55;;;;;;;10.48;6.30;;;7.90;55.50;;;6.70;46.49;101259.53;5013401;28;20129;-88
2022/03/09 08:43:23;;;;;;;13.00;7.25;;;8.00;54.70;;;6.78;44.93;101252.41;5002526;28;20263;-88
2022/03/09 08:45:50;;;;;;;12.63;6.65;;;8.10;53.40;;;6.89;45.64;101253.25;4985188;28;20084;-88
2022/03/09 08:48:19;;;;;;;10.50;6.65;;;8.20;53.70;;;6.95;44.71;101258.97;5008787;28;20052;-88
2022/03/09 08:50:46;;;;;;;12.70;6.95;;;8.20;52.90;;;7.00;44.72;101256.66;5007672;28;20076;-88
2022/03/09 08:53:14;;;;;;;11.68;7.25;;;8.30;52.60;;;7.09;44.42;101263.09;5009919;28;20049;-87
2022/03/09 08:55:41;;;;;;;11.48;6.75;;;8.40;52.30;;;7.07;45.13;101259.69;5012059;28;20153;-88
2022/03/09 08:58:09;;;;;;;14.57;7.60;;;8.40;52.50;;;7.16;45.37;101261.53;5011315;28;20049;-88
2022/03/09 09:00:36;;;;;;;12.50;7.47;;;8.50;52.60;;;7.22;44.42;101260.94;5005277;28;20072;-86
2022/03/09 09:03:04;;;;;;;12.30;6.90;;;8.60;52.10;;;7.32;44.88;101255.50;5009944;28;20511;-85
2022/03/09 09:05:32;;;;;;;10.98;6.97;;;8.70;52.20;;;7.35;45.57;101255.22;5011442;28;20056;-85
2022/03/09 09:08:00;;;;;;;12.88;6.65;;;8.70;52.40;;;7.39;44.59;101256.66;5018648;28;20069;-85
2022/03/09 09:10:27;;;;;;;14.45;7.35;;;8.80;52.20;;;7.46;44.35;101262.31;5011535;28;20081;-84
2022/03/09 09:12:57;;;;;;;11.63;6.88;;;8.80;52.20;;;7.55;44.16;101250.59;5011105;28;20125;-85
2022/03/09 09:15:25;;;;;;;18.77;7.38;;;8.90;51.50;;;7.59;43.84;101253.88;5012116;28;20042;-85
2022/03/09 09:17:58;;;;;;;12.55;7.40;;;8.90;52.40;;;7.62;43.21;101257.16;5000955;28;20041;-84
2022/03/09 09:20:26;;;;;;;12.15;7.13;;;9.00;51.40;;;7.72;43.50;101262.53;5011310;28;20046;-85
2022/03/09 09:22:56;;;;;;;11.57;6.85;;;9.10;52.00;;;7.72;43.69;101262.53;5011343;28;20710;-85
2022/03/09 09:25:26;;;;;;;14.30;7.95;;;9.10;52.30;;;7.67;43.24;101263.97;4992564;28;20462;-86
2022/03/09 09:27:56;;;;;;;14.70;7.60;;;9.10;52.00;;;7.64;42.36;101254.31;5014028;28;20038;-86
2022/03/09 09:30:24;;;;;;;15.88;8.15;;;9.10;51.70;;;7.64;42.66;101254.31;5011673;28;20588;-85
2022/03/09 09:32:51;;;;;;;15.80;8.88;;;9.00;51.50;;;7.66;43.58;101251.44;5009646;28;20042;-85
2022/03/09 09:35:19;;;;;;;16.10;8.73;;;9.10;51.30;;;7.70;42.74;101261.84;5010896;28;20042;-85
2022/03/09 09:37:46;;;;;;;15.55;9.35;;;9.10;51.50;;;7.80;42.55;101259.94;5010006;28;20049;-85
2022/03/09 09:40:16;;;;;;;17.45;9.40;;;9.20;50.70;;;7.82;43.57;101257.06;5010675;28;20054;-85
2022/03/09 09:42:44;;;;;;;20.75;10.18;;;9.30;51.50;;;7.89;42.78;101251.94;5011143;28;20065;-85
2022/03/09 09:45:11;;;;;;;24.08;10.30;;;9.30;51.00;;;7.93;42.95;101259.59;5010263;28;20136;-86
2022/03/09 09:47:39;;;;;;;17.52;9.20;;;9.40;50.50;;;8.00;42.94;101249.03;4998923;28;20052;-85
2022/03/09 09:50:07;;;;;;;18.50;9.73;;;9.40;51.90;;;8.09;42.47;101253.56;4993261;28;20057;-86
2022/03/09 09:52:36;;;;;;;17.65;9.60;;;9.40;51.30;;;8.08;42.41;101246.41;4993202;28;20049;-86
2022/03/09 09:55:07;;;;;;;15.07;9.40;;;9.40;51.40;;;8.13;42.54;101254.09;5011468;28;20073;-86
2022/03/09 09:57:36;;;;;;;15.43;8.95;;;9.50;50.90;;;8.13;42.20;101251.38;5005425;28;20030;-86
2022/03/09 10:00:07;;;;;;;13.05;8.05;;;9.50;50.80;;;8.14;42.26;101251.22;5011242;28;20088;-86
2022/03/09 10:02:42;;;;;;;15.55;8.45;;;9.50;50.90;;;8.14;42.07;101248.53;5009900;28;20048;-86
2022/03/09 10:05:14;;;;;;;15.55;8.35;;;9.50;50.70;;;8.17;42.44;101252.81;5010944;28;20451;-86
2022/03/09 10:08:18;;;;;;;14.93;8.75;;;9.60;50.70;;;8.26;41.51;101245.59;5011655;28;20522;-86
2022/03/09 10:10:58;;;;;;;14.35;8.30;;;9.70;49.90;;;8.32;41.82;101253.13;5004660;28;20067;-86
2022/03/09 10:13:30;;;;;;;17.30;8.68;;;9.60;50.00;;;8.32;42.11;101245.88;4992773;28;20053;-86
2022/03/09 10:16:15;;;;;;;;;;;9.70;50.70;;;8.36;42.03;101246.44;5010458;28;20116;-86
2022/03/09 10:18:50;;;;;;;15.20;8.35;;;9.70;50.70;;;8.39;41.47;101251.53;5012349;28;19928;-85
2022/03/09 10:21:20;;;;;;;17.83;8.73;;;9.80;50.10;;;8.41;41.52;101246.78;5004745;28;20074;-85
2022/03/09 10:23:58;;;;;;;13.05;8.07;;;9.80;50.00;;;8.41;41.26;101257.66;5003248;28;20062;-85
2022/03/09 10:26:27;;;;;;;17.25;8.52;;;9.80;50.10;;;8.44;41.13;101254.66;5002404;28;20042;-85
2022/03/09 10:29:01;;;;;;;14.32;8.70;;;9.80;49.80;;;8.46;41.76;101254.53;5005217;28;20048;-85
2022/03/09 10:31:38;;;;;;;17.98;9.65;;;9.90;50.50;;;8.45;41.48;101259.06;5005017;28;20049;-85